createdAt,value
2019-03-11T00:02:25.925Z,6.70
2019-03-11T00:04:54.140Z,6.70
2019-03-11T00:07:22.407Z,6.70
2019-03-11T00:09:50.653Z,6.60
2019-03-11T00:12:18.900Z,6.70
2019-03-11T00:14:47.156Z,6.60
2019-03-11T00:17:15.389Z,6.60
2019-03-11T00:19:43.633Z,6.60
2019-03-11T00:22:11.889Z,6.50
2019-03-11T00:24:40.121Z,6.50
2019-03-11T00:27:08.359Z,6.50
2019-03-11T00:29:36.622Z,6.40
2019-03-11T00:32:04.857Z,6.40
2019-03-11T00:34:33.100Z,6.40
2019-03-11T00:37:01.349Z,6.30
2019-03-11T00:39:29.577Z,6.30
2019-03-11T00:41:57.849Z,6.40
2019-03-11T00:44:26.070Z,6.30
2019-03-11T00:46:54.298Z,6.30
2019-03-11T00:49:22.543Z,6.20
2019-03-11T00:51:50.797Z,6.20
2019-03-11T00:54:19.039Z,6.20
2019-03-11T00:56:47.293Z,6.20
2019-03-11T00:59:15.503Z,6.20
2019-03-11T01:01:43.769Z,6.20
2019-03-11T01:04:12.029Z,6.20
2019-03-11T01:06:40.258Z,6.20
2019-03-11T01:09:08.517Z,6.10
2019-03-11T01:11:36.750Z,6.10
2019-03-11T01:14:04.973Z,6.10
2019-03-11T01:16:33.235Z,6.10
2019-03-11T01:19:01.481Z,6.10
2019-03-11T01:21:29.722Z,6.10
2019-03-11T01:23:57.979Z,6.10
2019-03-11T01:26:26.214Z,6.00
2019-03-11T01:28:54.459Z,6.00
2019-03-11T01:31:22.726Z,6.00
2019-03-11T01:33:50.949Z,6.00
2019-03-11T01:36:19.204Z,6.00
2019-03-11T01:38:47.438Z,6.00
2019-03-11T01:41:15.688Z,6.00
2019-03-11T01:43:43.965Z,5.90
2019-03-11T01:46:12.179Z,5.90
2019-03-11T01:48:40.427Z,5.90
2019-03-11T01:51:08.669Z,5.90
2019-03-11T01:53:36.904Z,5.90
2019-03-11T01:56:05.147Z,5.80
2019-03-11T01:58:33.401Z,5.80
2019-03-11T02:01:01.645Z,5.80
2019-03-11T02:03:29.898Z,5.80
2019-03-11T02:05:58.143Z,5.80
2019-03-11T02:08:26.395Z,5.80
2019-03-11T02:10:54.631Z,5.70
2019-03-11T02:13:22.882Z,5.80
2019-03-11T02:15:51.134Z,5.70
2019-03-11T02:18:19.393Z,5.70
2019-03-11T02:20:47.647Z,5.70
2019-03-11T02:23:15.881Z,5.60
2019-03-11T02:25:44.144Z,5.60
2019-03-11T02:28:12.386Z,5.60
2019-03-11T02:30:40.665Z,5.60
2019-03-11T02:33:08.940Z,5.70
2019-03-11T02:35:37.194Z,5.60
2019-03-11T02:38:05.417Z,5.60
2019-03-11T02:40:33.657Z,5.60
2019-03-11T02:43:01.984Z,5.70
2019-03-11T02:45:30.332Z,5.70
2019-03-11T02:47:58.597Z,5.70
2019-03-11T02:50:26.878Z,5.60
2019-03-11T02:52:55.091Z,5.70
2019-03-11T02:55:23.349Z,5.60
2019-03-11T02:57:51.583Z,5.60
2019-03-11T03:00:20.784Z,5.60
2019-03-11T03:02:56.651Z,5.60
2019-03-11T03:05:26.560Z,5.60
2019-03-11T03:07:54.795Z,5.60
2019-03-11T03:10:23.019Z,5.70
2019-03-11T03:12:51.284Z,5.70
2019-03-11T03:15:19.515Z,5.70
2019-03-11T03:17:47.759Z,5.70
2019-03-11T03:20:16.005Z,5.70
2019-03-11T03:22:44.288Z,5.70
2019-03-11T03:25:13.502Z,5.70
2019-03-11T03:27:41.823Z,5.70
2019-03-11T03:30:18.242Z,5.70
2019-03-11T03:32:46.539Z,5.70
2019-03-11T03:35:14.865Z,5.70
2019-03-11T03:37:43.170Z,5.70
2019-03-11T03:40:13.193Z,5.70
2019-03-11T03:42:41.465Z,5.70
2019-03-11T03:45:23.404Z,5.70
2019-03-11T03:47:51.730Z,5.70
2019-03-11T03:50:21.332Z,5.80
2019-03-11T03:52:49.550Z,5.80
2019-03-11T03:55:17.790Z,5.90
2019-03-11T03:57:46.060Z,5.90
2019-03-11T04:00:14.279Z,5.90
2019-03-11T04:02:42.558Z,5.90
2019-03-11T04:05:12.050Z,5.90
2019-03-11T04:07:40.268Z,5.80
2019-03-11T04:10:14.077Z,5.70
2019-03-11T04:12:42.382Z,5.60
2019-03-11T04:15:10.793Z,5.50
2019-03-11T04:17:39.084Z,5.50
2019-03-11T04:20:10.483Z,5.50
2019-03-11T04:22:38.804Z,5.50
2019-03-11T04:25:08.340Z,5.50
2019-03-11T04:27:36.682Z,5.50
2019-03-11T04:30:14.361Z,5.50
2019-03-11T04:32:42.598Z,5.50
2019-03-11T04:35:10.821Z,5.40
2019-03-11T04:37:39.086Z,5.40
2019-03-11T04:40:10.039Z,5.40
2019-03-11T04:42:38.296Z,5.40
2019-03-11T04:45:09.171Z,5.40
2019-03-11T04:47:37.416Z,5.40
2019-03-11T04:50:08.621Z,5.30
2019-03-11T04:52:36.887Z,5.30
2019-03-11T04:55:07.453Z,5.30
2019-03-11T04:57:47.994Z,5.30
2019-03-11T05:00:19.737Z,5.20
2019-03-11T05:02:47.965Z,5.30
2019-03-11T05:05:16.192Z,5.20
2019-03-11T05:07:44.440Z,5.20
2019-03-11T05:10:16.192Z,5.20
2019-03-11T05:12:43.594Z,5.20
2019-03-11T05:15:13.265Z,5.20
2019-03-11T05:17:41.487Z,5.20
2019-03-11T05:20:14.481Z,5.20
2019-03-11T05:22:42.793Z,5.20
2019-03-11T05:25:12.050Z,5.20
2019-03-11T05:27:40.326Z,5.20
2019-03-11T05:30:21.277Z,5.20
2019-03-11T05:32:49.502Z,5.20
2019-03-11T05:35:17.808Z,5.20
2019-03-11T05:37:46.061Z,5.20
2019-03-11T05:40:15.456Z,5.20
2019-03-11T05:42:43.720Z,5.20
2019-03-11T05:45:14.378Z,5.20
2019-03-11T05:47:42.603Z,5.20
2019-03-11T05:50:12.887Z,5.20
2019-03-11T05:52:41.174Z,5.10
2019-03-11T05:55:10.737Z,5.10
2019-03-11T05:57:39.044Z,5.10
2019-03-11T06:00:14.089Z,5.20
2019-03-11T06:02:42.316Z,5.20
2019-03-11T06:05:10.587Z,5.20
2019-03-11T06:07:38.814Z,5.20
2019-03-11T06:10:09.793Z,5.30
2019-03-11T06:12:38.040Z,5.30
2019-03-11T06:15:09.065Z,5.40
2019-03-11T06:17:37.352Z,5.40
2019-03-11T06:20:10.474Z,5.40
2019-03-11T06:22:38.693Z,5.40
2019-03-11T06:25:06.945Z,5.40
2019-03-11T06:27:36.553Z,5.40
2019-03-11T06:30:08.196Z,5.40
2019-03-11T06:32:36.697Z,5.40
2019-03-11T06:35:06.252Z,5.40
2019-03-11T06:37:34.522Z,5.30
2019-03-11T06:40:03.218Z,5.40
2019-03-11T06:42:31.427Z,5.40
2019-03-11T06:44:59.695Z,5.30
2019-03-11T06:47:27.951Z,5.30
2019-03-11T06:49:56.167Z,5.30
2019-03-11T06:52:24.429Z,5.40
2019-03-11T06:54:52.649Z,5.30
2019-03-11T06:57:20.880Z,5.30
2019-03-11T06:59:49.110Z,5.40
2019-03-11T07:02:17.370Z,5.40
2019-03-11T07:04:45.998Z,5.40
2019-03-11T07:07:14.255Z,5.40
2019-03-11T07:09:42.483Z,5.40
2019-03-11T07:12:10.723Z,5.40
2019-03-11T07:14:38.954Z,5.40
2019-03-11T07:17:07.192Z,5.40
2019-03-11T07:19:35.412Z,5.50
2019-03-11T07:22:03.660Z,5.50
2019-03-11T07:24:31.916Z,5.60
2019-03-11T07:27:00.199Z,5.50
2019-03-11T07:29:28.434Z,5.20
2019-03-11T07:31:56.648Z,5.00
2019-03-11T07:34:24.888Z,4.80
2019-03-11T07:36:53.141Z,4.70
2019-03-11T07:39:21.363Z,4.10
2019-03-11T07:41:49.678Z,3.70
2019-03-11T07:44:17.899Z,3.60
2019-03-11T07:46:46.162Z,3.50
2019-03-11T07:49:14.430Z,3.10
2019-03-11T07:51:42.670Z,2.90
2019-03-11T07:54:10.898Z,2.80
2019-03-11T07:56:39.144Z,2.80
2019-03-11T07:59:07.387Z,2.80
2019-03-11T08:01:35.650Z,2.80
2019-03-11T08:04:03.879Z,2.90
2019-03-11T08:06:32.104Z,3.00
2019-03-11T08:09:00.344Z,2.90
2019-03-11T08:11:28.574Z,3.00
2019-03-11T08:13:56.842Z,2.90
2019-03-11T08:16:25.062Z,2.90
2019-03-11T08:18:53.285Z,2.90
2019-03-11T08:21:21.519Z,3.00
2019-03-11T08:23:49.784Z,3.00
2019-03-11T08:26:18.086Z,3.10
2019-03-11T08:28:46.369Z,3.00
2019-03-11T08:31:14.591Z,3.00
2019-03-11T08:33:42.834Z,2.90
2019-03-11T08:36:11.085Z,2.90
2019-03-11T08:38:39.326Z,3.10
2019-03-11T08:41:07.550Z,3.50
2019-03-11T08:43:35.853Z,3.80
2019-03-11T08:46:04.123Z,4.20
2019-03-11T08:48:32.380Z,4.60
2019-03-11T08:51:00.794Z,4.90
2019-03-11T08:53:29.108Z,5.40
2019-03-11T08:55:57.393Z,5.80
2019-03-11T08:58:25.607Z,6.00
2019-03-11T09:00:53.844Z,6.10
2019-03-11T09:03:22.086Z,6.10
2019-03-11T09:05:50.336Z,6.00
2019-03-11T09:08:18.852Z,6.00
2019-03-11T09:10:47.294Z,6.00
2019-03-11T09:13:15.568Z,5.90
2019-03-11T09:15:43.846Z,5.90
2019-03-11T09:18:12.098Z,5.90
2019-03-11T09:20:40.320Z,5.90
2019-03-11T09:23:08.566Z,5.80
2019-03-11T09:25:36.788Z,5.80
2019-03-11T09:28:05.059Z,6.00
2019-03-11T09:30:33.282Z,6.20
2019-03-11T09:33:01.510Z,6.30
2019-03-11T09:35:29.766Z,6.30
2019-03-11T09:37:58.005Z,6.30
2019-03-11T09:40:26.252Z,6.20
2019-03-11T09:42:54.478Z,6.20
2019-03-11T09:45:24.266Z,6.30
2019-03-11T09:47:52.828Z,6.30
2019-03-11T09:50:21.057Z,6.40
2019-03-11T09:52:49.289Z,6.60
2019-03-11T09:55:23.196Z,6.80
2019-03-11T09:57:51.428Z,7.00
2019-03-11T10:00:23.741Z,7.00
2019-03-11T10:02:53.272Z,7.10
2019-03-11T10:05:21.987Z,7.30
2019-03-11T10:07:50.245Z,7.40
2019-03-11T10:10:20.079Z,7.40
2019-03-11T10:12:48.307Z,7.40
2019-03-11T10:15:20.444Z,7.40
2019-03-11T10:17:48.968Z,7.40
2019-03-11T10:20:18.281Z,7.40
2019-03-11T10:22:46.558Z,7.60
2019-03-11T10:25:16.149Z,7.40
2019-03-11T10:27:44.437Z,7.30
2019-03-11T10:30:17.424Z,7.20
2019-03-11T10:32:46.014Z,7.10
2019-03-11T10:35:30.731Z,7.40
2019-03-11T10:37:45.857Z,7.50
2019-03-11T10:40:22.240Z,7.60
2019-03-11T10:42:50.480Z,7.40
2019-03-11T10:45:26.571Z,7.40
2019-03-11T10:47:48.671Z,7.50
2019-03-11T10:50:20.677Z,7.60
2019-03-11T10:52:48.886Z,7.50
2019-03-11T10:55:23.926Z,7.50
2019-03-11T10:57:52.147Z,7.50
2019-03-11T11:00:25.606Z,7.60
2019-03-11T11:02:53.842Z,7.80
2019-03-11T11:05:22.059Z,8.10
2019-03-11T11:07:50.306Z,8.40
2019-03-11T11:10:18.869Z,8.60
2019-03-11T11:12:47.126Z,8.30
2019-03-11T11:15:17.947Z,7.50
2019-03-11T11:17:46.196Z,7.00
2019-03-11T11:20:16.381Z,6.70
2019-03-11T11:22:44.574Z,6.70
2019-03-11T11:25:15.070Z,6.70
2019-03-11T11:27:43.291Z,6.80
2019-03-11T11:30:21.820Z,7.10
2019-03-11T11:32:50.107Z,7.80
2019-03-11T11:35:18.410Z,8.30
2019-03-11T11:37:46.640Z,8.60
2019-03-11T11:40:18.125Z,8.60
2019-03-11T11:42:46.370Z,8.60
2019-03-11T11:45:17.860Z,8.60
2019-03-11T11:47:46.086Z,8.70
2019-03-11T11:50:16.363Z,9.00
2019-03-11T11:52:44.591Z,9.30
2019-03-11T11:55:13.888Z,10.00
2019-03-11T11:57:42.160Z,10.60
2019-03-11T12:00:14.551Z,11.00
2019-03-11T12:02:42.789Z,12.20
2019-03-11T12:05:13.068Z,12.90
2019-03-11T12:07:41.325Z,12.70
2019-03-11T12:10:23.834Z,11.90
2019-03-11T12:12:52.104Z,11.00
2019-03-11T12:15:20.335Z,10.10
2019-03-11T12:17:48.598Z,9.40
2019-03-11T12:20:20.663Z,8.80
2019-03-11T12:22:48.922Z,9.40
2019-03-11T12:25:17.148Z,9.90
2019-03-11T12:27:53.599Z,10.60
2019-03-11T12:30:31.883Z,10.70
2019-03-11T12:33:00.159Z,10.90
2019-03-11T12:35:28.451Z,11.80
2019-03-11T12:37:56.674Z,12.80
2019-03-11T12:40:24.899Z,13.70
2019-03-11T12:42:53.154Z,14.00
2019-03-11T12:45:25.647Z,12.50
2019-03-11T12:47:53.879Z,12.60
2019-03-11T12:50:26.521Z,13.60
2019-03-11T12:52:54.743Z,14.40
2019-03-11T12:55:22.954Z,15.40
2019-03-11T12:57:51.212Z,15.40
2019-03-11T13:00:23.361Z,14.20
2019-03-11T13:02:51.609Z,12.70
2019-03-11T13:05:19.877Z,12.00
2019-03-11T13:07:48.120Z,12.00
2019-03-11T13:10:18.326Z,10.90
2019-03-11T13:12:46.562Z,10.30
2019-03-11T13:15:15.719Z,9.60
2019-03-11T13:17:43.960Z,9.50
2019-03-11T13:20:27.727Z,9.50
2019-03-11T13:22:55.984Z,9.20
2019-03-11T13:25:24.234Z,8.80
2019-03-11T13:27:52.488Z,8.60
2019-03-11T13:30:20.729Z,8.60
2019-03-11T13:32:49.000Z,8.80
2019-03-11T13:35:17.301Z,8.80
2019-03-11T13:37:45.586Z,8.70
2019-03-11T13:40:16.019Z,9.60
2019-03-11T13:42:44.246Z,10.40
2019-03-11T13:45:18.796Z,9.90
2019-03-11T13:47:47.104Z,9.90
2019-03-11T13:50:18.613Z,10.20
2019-03-11T13:52:46.850Z,10.10
2019-03-11T13:55:17.883Z,11.40
2019-03-11T13:57:46.110Z,11.90
2019-03-11T14:00:15.904Z,11.20
2019-03-11T14:02:44.142Z,10.20
2019-03-11T14:05:12.382Z,9.80
2019-03-11T14:07:40.608Z,9.60
2019-03-11T14:10:10.314Z,9.20
2019-03-11T14:12:38.558Z,10.20
2019-03-11T14:15:17.153Z,10.50
2019-03-11T14:17:45.413Z,10.10
2019-03-11T14:20:14.289Z,10.10
2019-03-11T14:22:42.538Z,10.70
2019-03-11T14:25:11.904Z,11.80
2019-03-11T14:27:40.340Z,12.00
2019-03-11T14:30:16.070Z,11.90
2019-03-11T14:32:44.528Z,11.20
2019-03-11T14:35:13.126Z,10.40
2019-03-11T14:37:41.444Z,10.10
2019-03-11T14:40:14.814Z,9.60
2019-03-11T14:42:43.069Z,9.40
2019-03-11T14:45:14.175Z,9.00
2019-03-11T14:47:42.429Z,8.50
2019-03-11T14:50:12.579Z,8.20
2019-03-11T14:52:40.828Z,8.00
2019-03-11T14:55:10.406Z,7.70
2019-03-11T14:57:38.655Z,7.40
2019-03-11T15:00:12.658Z,8.70
2019-03-11T15:02:40.939Z,10.60
2019-03-11T15:05:14.746Z,12.30
2019-03-11T15:07:42.960Z,13.20
2019-03-11T15:10:12.848Z,13.50
2019-03-11T15:12:41.082Z,13.30
2019-03-11T15:15:23.638Z,12.10
2019-03-11T15:17:51.905Z,11.40
2019-03-11T15:20:20.162Z,10.60
2019-03-11T15:22:48.383Z,10.10
2019-03-11T15:25:16.700Z,9.70
2019-03-11T15:27:44.945Z,9.30
2019-03-11T15:30:23.474Z,9.80
2019-03-11T15:32:51.719Z,9.60
2019-03-11T15:35:20.580Z,9.30
2019-03-11T15:37:48.957Z,9.00
2019-03-11T15:40:18.015Z,8.80
2019-03-11T15:42:46.273Z,9.00
2019-03-11T15:45:18.347Z,8.90
2019-03-11T15:47:46.648Z,8.50
2019-03-11T15:50:27.119Z,8.30
2019-03-11T15:52:55.347Z,7.90
2019-03-11T15:55:23.568Z,7.50
2019-03-11T15:57:51.828Z,7.10
2019-03-11T16:00:22.060Z,7.00
2019-03-11T16:02:50.297Z,6.80
2019-03-11T16:05:22.810Z,6.70
2019-03-11T16:07:51.046Z,6.70
2019-03-11T16:10:19.389Z,7.10
2019-03-11T16:12:47.708Z,7.50
2019-03-11T16:15:16.561Z,7.50
2019-03-11T16:17:44.789Z,7.40
2019-03-11T16:20:18.298Z,7.40
2019-03-11T16:22:46.529Z,7.40
2019-03-11T16:25:14.772Z,7.50
2019-03-11T16:27:43.036Z,7.40
2019-03-11T16:30:13.911Z,7.30
2019-03-11T16:32:57.542Z,7.10
2019-03-11T16:35:12.103Z,7.10
2019-03-11T16:37:40.362Z,7.00
2019-03-11T16:40:11.013Z,6.90
2019-03-11T16:42:39.284Z,6.70
2019-03-11T16:45:09.813Z,6.70
2019-03-11T16:47:38.078Z,6.60
2019-03-11T16:50:12.077Z,6.50
2019-03-11T16:52:40.305Z,6.40
2019-03-11T16:55:11.454Z,6.30
2019-03-11T16:57:39.715Z,6.20
2019-03-11T17:00:16.354Z,6.10
2019-03-11T17:02:44.649Z,6.10
2019-03-11T17:05:12.887Z,6.00
2019-03-11T17:07:41.112Z,6.00
2019-03-11T17:10:15.552Z,6.00
2019-03-11T17:12:43.753Z,6.00
2019-03-11T17:15:12.065Z,5.80
2019-03-11T17:17:40.315Z,5.80
2019-03-11T17:20:11.302Z,5.80
2019-03-11T17:22:39.539Z,5.80
2019-03-11T17:25:10.318Z,5.80
2019-03-11T17:27:38.582Z,5.80
2019-03-11T17:30:15.835Z,5.70
2019-03-11T17:32:44.079Z,5.70
2019-03-11T17:35:12.318Z,5.70
2019-03-11T17:37:40.536Z,5.60
2019-03-11T17:40:11.539Z,5.60
2019-03-11T17:42:39.762Z,5.60
2019-03-11T17:45:10.602Z,5.60
2019-03-11T17:47:38.846Z,5.60
2019-03-11T17:50:12.385Z,5.70
2019-03-11T17:52:40.620Z,5.60
2019-03-11T17:55:11.192Z,5.60
2019-03-11T17:57:40.395Z,5.60
2019-03-11T18:00:15.904Z,5.50
2019-03-11T18:02:44.158Z,5.60
2019-03-11T18:05:12.377Z,5.60
2019-03-11T18:07:40.626Z,5.70
2019-03-11T18:10:09.106Z,5.60
2019-03-11T18:12:37.353Z,5.60
2019-03-11T18:15:12.754Z,5.70
2019-03-11T18:17:40.578Z,5.70
2019-03-11T18:20:17.377Z,5.70
2019-03-11T18:22:45.626Z,5.70
2019-03-11T18:25:15.379Z,5.70
2019-03-11T18:27:43.657Z,5.70
2019-03-11T18:30:26.909Z,5.70
2019-03-11T18:32:55.198Z,5.70
2019-03-11T18:35:23.436Z,5.70
2019-03-11T18:38:02.895Z,5.60
2019-03-11T18:40:21.693Z,5.60
2019-03-11T18:42:49.933Z,5.60
2019-03-11T18:45:18.164Z,5.60
2019-03-11T18:47:46.410Z,5.60
2019-03-11T18:50:19.783Z,5.60
2019-03-11T18:52:48.082Z,5.60
2019-03-11T18:55:16.366Z,5.60
2019-03-11T18:57:44.641Z,5.60
2019-03-11T19:00:22.603Z,5.60
2019-03-11T19:02:50.902Z,5.70
2019-03-11T19:05:22.558Z,5.70
2019-03-11T19:07:50.788Z,5.60
2019-03-11T19:10:19.114Z,5.60
2019-03-11T19:12:47.385Z,5.70
2019-03-11T19:15:20.228Z,5.60
2019-03-11T19:17:48.463Z,5.70
2019-03-11T19:20:18.628Z,5.70
2019-03-11T19:22:47.135Z,5.70
2019-03-11T19:25:15.503Z,5.70
2019-03-11T19:27:43.781Z,5.70
2019-03-11T19:30:15.125Z,5.70
2019-03-11T19:32:43.327Z,5.60
2019-03-11T19:35:11.622Z,5.50
2019-03-11T19:37:39.895Z,5.50
2019-03-11T19:40:10.966Z,5.50
2019-03-11T19:42:39.222Z,5.50
2019-03-11T19:45:10.376Z,5.40
2019-03-11T19:47:38.631Z,5.40
2019-03-11T19:50:10.138Z,5.40
2019-03-11T19:52:38.464Z,5.40
2019-03-11T19:55:06.798Z,5.40
2019-03-11T19:57:35.057Z,5.40
2019-03-11T20:00:04.597Z,5.40
2019-03-11T20:02:32.901Z,5.40
2019-03-11T20:05:01.229Z,5.40
2019-03-11T20:07:30.530Z,5.30
2019-03-11T20:09:58.825Z,5.30
2019-03-11T20:12:27.084Z,5.30
2019-03-11T20:14:55.365Z,5.30
2019-03-11T20:17:23.629Z,5.20
2019-03-11T20:19:51.953Z,5.20
2019-03-11T20:22:20.275Z,5.20
2019-03-11T20:24:48.563Z,5.20
2019-03-11T20:27:16.818Z,5.30
2019-03-11T20:29:45.082Z,5.30
2019-03-11T20:32:13.411Z,5.30
2019-03-11T20:34:41.745Z,5.30
2019-03-11T20:37:10.057Z,5.40
2019-03-11T20:39:38.302Z,5.40
2019-03-11T20:42:06.622Z,5.40
2019-03-11T20:44:34.845Z,5.40
2019-03-11T20:47:03.169Z,5.40
2019-03-11T20:49:31.447Z,5.40
2019-03-11T20:51:59.790Z,5.40
2019-03-11T20:54:30.789Z,5.40
2019-03-11T20:57:00.778Z,5.30
2019-03-11T20:59:27.998Z,5.40
2019-03-11T21:01:56.281Z,5.30
2019-03-11T21:04:24.549Z,5.30
2019-03-11T21:06:52.835Z,5.30
2019-03-11T21:09:21.193Z,5.30
2019-03-11T21:11:49.484Z,5.30
2019-03-11T21:14:17.705Z,5.30
2019-03-11T21:16:46.238Z,5.20
2019-03-11T21:19:14.514Z,5.20
2019-03-11T21:21:42.812Z,5.20
2019-03-11T21:24:13.718Z,5.20
2019-03-11T21:26:41.047Z,5.20
2019-03-11T21:29:09.303Z,5.20
2019-03-11T21:31:37.778Z,5.20
2019-03-11T21:34:09.483Z,5.30
2019-03-11T21:36:35.978Z,5.30
2019-03-11T21:39:05.148Z,5.30
2019-03-11T21:41:33.476Z,5.30
2019-03-11T21:44:01.800Z,5.30
2019-03-11T21:46:30.021Z,5.20
2019-03-11T21:48:58.269Z,5.20
2019-03-11T21:51:26.593Z,5.20
2019-03-11T21:53:54.960Z,5.20
2019-03-11T21:56:23.286Z,5.30
2019-03-11T21:58:51.526Z,5.30
2019-03-11T22:01:19.812Z,5.30
2019-03-11T22:03:48.036Z,5.20
2019-03-11T22:06:16.373Z,5.30
2019-03-11T22:08:44.602Z,5.30
2019-03-11T22:11:12.838Z,5.30
2019-03-11T22:13:41.097Z,5.30
2019-03-11T22:16:09.333Z,5.30
2019-03-11T22:18:37.566Z,5.20
2019-03-11T22:21:05.812Z,5.30
2019-03-11T22:23:34.063Z,5.30
2019-03-11T22:26:02.255Z,5.30
2019-03-11T22:28:30.513Z,5.30
2019-03-11T22:30:58.841Z,5.20
2019-03-11T22:33:27.058Z,5.30
2019-03-11T22:35:55.297Z,5.30
2019-03-11T22:38:23.549Z,5.30
2019-03-11T22:40:51.772Z,5.40
2019-03-11T22:43:20.012Z,5.30
2019-03-11T22:45:48.280Z,5.30
2019-03-11T22:48:16.505Z,5.30
2019-03-11T22:50:44.782Z,5.30
2019-03-11T22:53:13.029Z,5.30
2019-03-11T22:55:41.296Z,5.30
2019-03-11T22:58:09.514Z,5.30
2019-03-11T23:00:56.344Z,5.20
2019-03-11T23:03:25.157Z,5.20
2019-03-11T23:05:58.070Z,5.20
2019-03-11T23:08:23.415Z,5.20
2019-03-11T23:10:51.673Z,5.20
2019-03-11T23:13:19.917Z,5.20
2019-03-11T23:15:48.256Z,5.20
2019-03-11T23:18:16.496Z,5.10
2019-03-11T23:20:44.724Z,5.10
2019-03-11T23:23:13.019Z,5.10
2019-03-11T23:25:41.217Z,5.10
2019-03-11T23:28:09.472Z,5.10
2019-03-11T23:30:37.706Z,5.10
2019-03-11T23:33:05.938Z,5.10
2019-03-11T23:35:34.161Z,5.10
2019-03-11T23:38:02.417Z,5.10
2019-03-11T23:40:30.665Z,5.10
2019-03-11T23:42:58.884Z,5.10
2019-03-11T23:45:27.219Z,5.10
2019-03-11T23:47:55.430Z,5.10
2019-03-11T23:50:23.694Z,5.10
2019-03-11T23:52:51.920Z,5.10
2019-03-11T23:55:20.141Z,5.00
2019-03-11T23:57:48.375Z,5.00
